Time;durP1;ratioP1;P1;durP2;ratioP2;P2;SDS_P1;SDS_P2;PMS_P1;PMS_P2;Temp;Humidity;BMP_temperature;BMP_pressure;BME280_temperature;BME280_humidity;BME280_pressure;Samples;Min_cycle;Max_cycle;Signal;HPM_P1;HPM_P2
2022/05/21 00:00:58;;;;;;;0.00;0.00;;;17.40;99.90;;;;;;4991965;28;20100;-64
2022/05/21 00:03:23;;;;;;;0.00;0.00;;;17.40;99.90;;;;;;4991840;28;20061;-66
2022/05/21 00:05:49;;;;;;;0.52;0.35;;;17.40;99.90;;;;;;4992258;28;20029;-65
2022/05/21 00:08:15;;;;;;;0.17;0.17;;;17.30;99.90;;;;;;4991869;28;20030;-65
2022/05/21 00:10:42;;;;;;;0.00;0.00;;;17.20;99.90;;;;;;4992071;28;20512;-66
2022/05/21 00:13:08;;;;;;;0.00;0.00;;;17.20;99.90;;;;;;4990739;28;20109;-66
2022/05/21 00:15:35;;;;;;;0.00;0.00;;;17.20;99.90;;;;;;4990528;28;20027;-66
2022/05/21 00:18:02;;;;;;;0.00;0.00;;;17.10;99.90;;;;;;4991598;28;20041;-66
2022/05/21 00:23:28;;;;;;;0.38;0.30;;;17.00;99.90;;;;;;4991521;28;20037;-66
2022/05/21 00:26:03;;;;;;;0.10;0.10;;;16.90;99.90;;;;;;4990246;28;20077;-66
2022/05/21 00:28:30;;;;;;;0.00;0.00;;;16.90;99.90;;;;;;4974186;28;20109;-66
2022/05/21 00:30:57;;;;;;;0.30;0.20;;;16.80;99.90;;;;;;4991583;28;20022;-66
2022/05/21 00:33:24;;;;;;;0.00;0.00;;;16.80;99.90;;;;;;4990312;28;20018;-65
2022/05/21 00:35:51;;;;;;;0.47;0.38;;;16.70;99.90;;;;;;4991574;28;20030;-65
2022/05/21 00:38:17;;;;;;;0.00;0.00;;;16.70;99.90;;;;;;4990185;28;20101;-65
2022/05/21 00:40:45;;;;;;;0.45;0.45;;;16.60;99.90;;;;;;4989802;28;20038;-64
2022/05/21 00:43:44;;;;;;;0.00;0.00;;;16.60;99.90;;;;;;4990194;28;20034;-66
2022/05/21 00:46:30;;;;;;;0.00;0.00;;;16.50;99.90;;;;;;4990080;28;20034;-65
2022/05/21 00:49:05;;;;;;;0.00;0.00;;;16.50;99.90;;;;;;4989983;28;20117;-65
2022/05/21 00:51:55;;;;;;;1.27;0.90;;;16.40;99.90;;;;;;4991325;28;20507;-64
2022/05/21 00:54:28;;;;;;;0.00;0.00;;;16.30;99.90;;;;;;4991526;28;20039;-64
2022/05/21 00:57:05;;;;;;;0.20;0.20;;;16.30;99.90;;;;;;4990266;28;20035;-64
2022/05/21 00:59:51;;;;;;;0.22;0.10;;;16.30;99.90;;;;;;4989890;28;20390;-64
2022/05/21 01:02:31;;;;;;;0.70;0.70;;;16.20;99.90;;;;;;4990974;28;20029;-63
2022/05/21 01:04:59;;;;;;;0.00;0.00;;;16.20;99.90;;;;;;4976874;28;20030;-66
2022/05/21 01:07:25;;;;;;;0.10;0.10;;;16.20;99.90;;;;;;4962558;28;20081;-65
2022/05/21 01:09:56;;;;;;;0.00;0.00;;;16.10;99.90;;;;;;4970000;28;20034;-66
2022/05/21 01:12:36;;;;;;;0.08;0.08;;;16.10;99.90;;;;;;4966921;28;20155;-65
2022/05/21 01:15:10;;;;;;;0.00;0.00;;;16.00;99.90;;;;;;4955645;28;20604;-64
2022/05/21 01:17:36;;;;;;;0.00;0.00;;;16.00;99.90;;;;;;4970351;28;20117;-65
2022/05/21 01:20:13;;;;;;;0.10;0.10;;;15.90;99.90;;;;;;4971756;28;20526;-65
2022/05/21 01:22:52;;;;;;;0.03;0.03;;;15.80;99.90;;;;;;4970506;28;20454;-65
2022/05/21 01:25:24;;;;;;;0.45;0.45;;;15.70;99.90;;;;;;4966931;28;20039;-65
2022/05/21 01:27:53;;;;;;;0.00;0.00;;;15.70;99.90;;;;;;4950942;29;20507;-66
2022/05/21 01:30:30;;;;;;;0.00;0.00;;;15.60;99.90;;;;;;4952026;29;20038;-65
2022/05/21 01:32:56;;;;;;;3.00;0.52;;;15.60;99.90;;;;;;4950927;29;20023;-65
2022/05/21 01:35:21;;;;;;;0.00;0.00;;;15.50;99.90;;;;;;4951957;28;20390;-64
2022/05/21 01:37:48;;;;;;;0.00;0.00;;;15.50;99.90;;;;;;4950806;29;20122;-64
2022/05/21 01:40:17;;;;;;;0.00;0.00;;;15.50;99.90;;;;;;4952071;28;20122;-64
2022/05/21 01:42:43;;;;;;;8.70;1.60;;;15.40;99.90;;;;;;4971525;28;20031;-65
2022/05/21 01:45:10;;;;;;;0.75;0.52;;;15.40;99.90;;;;;;4970435;28;20386;-66
2022/05/21 01:47:41;;;;;;;0.00;0.00;;;15.30;99.90;;;;;;4970111;28;20035;-64
2022/05/21 01:50:08;;;;;;;0.10;0.10;;;15.30;99.90;;;;;;4971208;28;20030;-66
2022/05/21 01:52:34;;;;;;;0.20;0.20;;;15.20;99.90;;;;;;4971677;28;20086;-65
2022/05/21 01:54:59;;;;;;;0.20;0.20;;;15.30;99.90;;;;;;4973514;28;20066;-65
2022/05/21 01:57:25;;;;;;;0.45;0.45;;;15.30;99.90;;;;;;4975120;28;20038;-66
2022/05/21 01:59:51;;;;;;;0.00;0.00;;;15.20;99.90;;;;;;4974475;28;20041;-66
2022/05/21 02:02:17;;;;;;;0.00;0.00;;;15.20;99.90;;;;;;4974733;28;20018;-64
2022/05/21 02:04:42;;;;;;;0.00;0.00;;;15.20;99.90;;;;;;4974841;28;20046;-66
2022/05/21 02:07:08;;;;;;;0.00;0.00;;;15.20;99.90;;;;;;4974860;28;20066;-65
2022/05/21 02:09:34;;;;;;;0.03;0.03;;;15.10;99.90;;;;;;4973148;28;20090;-64
2022/05/21 02:12:00;;;;;;;0.10;0.10;;;15.10;99.90;;;;;;4973270;28;20392;-64
2022/05/21 02:14:26;;;;;;;0.00;0.00;;;15.10;99.90;;;;;;4981188;23;20071;-64
2022/05/21 02:16:53;;;;;;;0.17;0.17;;;15.00;99.90;;;;;;4946597;28;20062;-64
2022/05/21 02:19:18;;;;;;;0.10;0.10;;;15.20;99.90;;;;;;4954748;28;20408;-64
2022/05/21 02:21:44;;;;;;;0.20;0.10;;;15.10;99.90;;;;;;4955005;28;20038;-67
2022/05/21 02:24:10;;;;;;;0.00;0.00;;;15.10;99.90;;;;;;4954674;28;20077;-64
2022/05/21 02:26:38;;;;;;;0.00;0.00;;;15.00;99.90;;;;;;4955120;28;20067;-65
2022/05/21 02:29:04;;;;;;;0.00;0.00;;;15.10;99.90;;;;;;4954979;28;20118;-65
2022/05/21 02:31:30;;;;;;;0.10;0.10;;;15.00;99.90;;;;;;4954826;28;20500;-65
2022/05/21 02:33:56;;;;;;;0.00;0.00;;;14.90;99.90;;;;;;4953498;29;20050;-65
2022/05/21 02:39:25;;;;;;;0.10;0.10;;;14.90;99.90;;;;;;4954825;28;20498;-65
2022/05/21 02:39:25;;;;;;;0.00;0.00;;;14.80;99.90;;;;;;4954457;28;20043;-65
2022/05/21 02:41:52;;;;;;;0.20;0.20;;;14.80;99.90;;;;;;4953924;29;20472;-65
2022/05/21 02:44:18;;;;;;;0.60;0.55;;;14.80;99.90;;;;;;4953304;29;20752;-65
2022/05/21 02:46:44;;;;;;;0.00;0.00;;;14.80;99.90;;;;;;4953468;29;20043;-64
2022/05/21 02:49:10;;;;;;;0.00;0.00;;;14.80;99.90;;;;;;4954173;29;20089;-65
2022/05/21 02:51:35;;;;;;;0.30;0.30;;;14.90;99.90;;;;;;4954757;28;20045;-65
2022/05/21 02:54:01;;;;;;;0.00;0.00;;;14.80;99.90;;;;;;4954459;29;20403;-65
2022/05/21 02:56:27;;;;;;;0.10;0.10;;;14.80;99.90;;;;;;4954726;28;20036;-65
2022/05/21 02:58:52;;;;;;;0.00;0.00;;;14.90;99.90;;;;;;4954031;28;20038;-65
2022/05/21 03:01:18;;;;;;;0.35;0.32;;;14.90;99.90;;;;;;4953965;29;20519;-65
2022/05/21 03:03:44;;;;;;;0.00;0.00;;;14.90;99.90;;;;;;4953908;28;20037;-65
2022/05/21 03:06:09;;;;;;;0.45;0.45;;;14.90;99.90;;;;;;4954467;28;20039;-65
2022/05/21 03:11:19;;;;;;;1.13;0.40;;;14.80;99.90;;;;;;4954284;29;20043;-64
2022/05/21 03:13:45;;;;;;;0.00;0.00;;;14.70;99.90;;;;;;4953772;29;20027;-64
2022/05/21 03:16:11;;;;;;;0.00;0.00;;;14.70;99.90;;;;;;4969908;28;20070;-64
2022/05/21 03:18:37;;;;;;;0.20;0.20;;;14.80;99.90;;;;;;4972939;28;20065;-65
2022/05/21 03:21:03;;;;;;;0.10;0.10;;;14.80;99.90;;;;;;4973225;28;20398;-66
2022/05/21 03:23:29;;;;;;;0.00;0.00;;;14.70;99.90;;;;;;4971965;28;20034;-66
2022/05/21 03:25:55;;;;;;;0.10;0.10;;;14.60;99.90;;;;;;4973159;28;20364;-66
2022/05/21 03:28:21;;;;;;;0.00;0.00;;;14.60;99.90;;;;;;4971844;28;20037;-66
2022/05/21 03:30:47;;;;;;;0.57;0.40;;;14.60;99.90;;;;;;4972654;28;20046;-66
2022/05/21 03:33:14;;;;;;;0.00;0.00;;;14.60;99.90;;;;;;4971934;28;20035;-66
2022/05/21 03:35:41;;;;;;;0.00;0.00;;;14.60;99.90;;;;;;4971806;28;20274;-66
2022/05/21 03:38:08;;;;;;;0.00;0.00;;;14.60;99.90;;;;;;4971708;28;20033;-66
2022/05/21 03:40:38;;;;;;;0.00;0.00;;;14.70;99.90;;;;;;4971647;28;20118;-66
2022/05/21 03:43:04;;;;;;;0.00;0.00;;;14.70;99.90;;;;;;4971298;28;20855;-66
2022/05/21 03:45:30;;;;;;;0.00;0.00;;;14.60;99.90;;;;;;4972558;28;20130;-66
2022/05/21 03:47:56;;;;;;;0.45;0.45;;;14.60;99.90;;;;;;4972821;28;20027;-65
2022/05/21 03:50:27;;;;;;;0.38;0.22;;;14.60;99.90;;;;;;4971276;28;20379;-66
2022/05/21 03:52:53;;;;;;;0.00;0.00;;;14.60;99.90;;;;;;4972490;28;20034;-66
2022/05/21 03:55:19;;;;;;;0.00;0.00;;;14.70;99.90;;;;;;4972441;28;20369;-66
2022/05/21 03:57:44;;;;;;;0.00;0.00;;;14.70;99.90;;;;;;4972971;28;20039;-66
2022/05/21 04:00:15;;;;;;;0.10;0.10;;;14.70;99.90;;;;;;4972138;28;20037;-66
2022/05/21 04:02:41;;;;;;;0.03;0.03;;;14.60;99.90;;;;;;4971434;28;20030;-66
2022/05/21 04:05:09;;;;;;;0.00;0.00;;;14.60;99.90;;;;;;4972297;28;20034;-66
2022/05/21 04:07:37;;;;;;;0.00;0.00;;;14.60;99.90;;;;;;4970900;28;20483;-65
2022/05/21 04:10:03;;;;;;;0.30;0.30;;;14.60;99.90;;;;;;4971949;28;20118;-66
2022/05/21 04:12:29;;;;;;;0.10;0.10;;;14.50;99.90;;;;;;4954994;28;20037;-66
2022/05/21 04:14:55;;;;;;;0.00;0.00;;;14.50;99.90;;;;;;4965693;28;20035;-66
2022/05/21 04:17:21;;;;;;;4.38;0.90;;;14.50;99.90;;;;;;4952858;28;20023;-66
2022/05/21 04:19:47;;;;;;;0.10;0.10;;;14.60;99.90;;;;;;4951622;29;20027;-65
2022/05/21 04:22:13;;;;;;;0.52;0.45;;;14.60;99.90;;;;;;4953043;29;20762;-66
2022/05/21 04:24:38;;;;;;;0.00;0.00;;;14.60;99.90;;;;;;4952808;29;20035;-66
2022/05/21 04:27:07;;;;;;;0.45;0.30;;;14.60;99.90;;;;;;4952905;29;20042;-66
2022/05/21 04:29:37;;;;;;;0.00;0.00;;;14.70;99.90;;;;;;4952521;28;20038;-66
2022/05/21 04:32:03;;;;;;;0.00;0.00;;;14.40;99.90;;;;;;4952652;29;20032;-65
2022/05/21 04:34:29;;;;;;;0.00;0.00;;;14.40;99.90;;;;;;4951160;28;20031;-66
2022/05/21 04:36:55;;;;;;;0.10;0.10;;;14.50;99.90;;;;;;4952625;29;20613;-66
2022/05/21 04:39:21;;;;;;;0.10;0.10;;;14.50;99.90;;;;;;4951036;29;20030;-65
2022/05/21 04:41:47;;;;;;;0.00;0.00;;;14.50;99.90;;;;;;4952682;29;20027;-65
2022/05/21 04:44:12;;;;;;;0.00;0.00;;;14.50;99.90;;;;;;4952628;29;20050;-65
2022/05/21 04:46:38;;;;;;;0.00;0.00;;;14.40;99.90;;;;;;4951583;28;20460;-66
2022/05/21 04:49:04;;;;;;;0.00;0.00;;;14.50;99.90;;;;;;4952162;28;20062;-65
2022/05/21 04:51:37;;;;;;;0.00;0.00;;;14.50;99.90;;;;;;4952431;28;20039;-65
2022/05/21 04:54:04;;;;;;;1.45;1.35;;;14.50;99.90;;;;;;4950900;29;20078;-66
2022/05/21 04:56:31;;;;;;;0.70;0.70;;;14.60;99.90;;;;;;4950959;28;20023;-66
2022/05/21 04:58:58;;;;;;;0.10;0.10;;;14.60;99.90;;;;;;4952234;28;20035;-65
2022/05/21 05:01:25;;;;;;;0.00;0.00;;;14.70;99.90;;;;;;4950801;29;20451;-66
2022/05/21 05:03:50;;;;;;;0.00;0.00;;;14.70;99.90;;;;;;4952209;29;20066;-66
2022/05/21 05:06:16;;;;;;;0.90;0.38;;;14.70;99.90;;;;;;4952360;29;20118;-65
2022/05/21 05:08:42;;;;;;;0.00;0.00;;;14.70;99.90;;;;;;4951017;29;20121;-65
2022/05/21 05:11:07;;;;;;;0.00;0.00;;;14.60;99.90;;;;;;4951103;29;20027;-65
2022/05/21 05:13:33;;;;;;;0.00;0.00;;;14.50;99.90;;;;;;4952069;29;20558;-65
2022/05/21 05:15:59;;;;;;;0.10;0.10;;;14.60;99.90;;;;;;4966090;28;20053;-65
2022/05/21 05:18:30;;;;;;;0.00;0.00;;;14.60;99.90;;;;;;4971303;28;20066;-65
2022/05/21 05:20:56;;;;;;;0.00;0.00;;;14.50;99.90;;;;;;4971130;28;20023;-65
2022/05/21 05:23:22;;;;;;;0.00;0.00;;;14.60;99.90;;;;;;4986251;28;20022;-65
2022/05/21 05:25:48;;;;;;;0.15;0.15;;;14.70;99.90;;;;;;4970213;28;20669;-65
2022/05/21 05:28:20;;;;;;;0.00;0.00;;;14.70;99.90;;;;;;4973289;28;20049;-65
2022/05/21 05:30:49;;;;;;;0.00;0.00;;;14.70;99.90;;;;;;4973607;28;20507;-65
2022/05/21 05:33:16;;;;;;;0.00;0.00;;;14.60;99.90;;;;;;4974315;28;20031;-65
2022/05/21 05:35:42;;;;;;;0.00;0.00;;;14.60;99.90;;;;;;4974868;28;20112;-65
2022/05/21 05:38:11;;;;;;;0.00;0.00;;;14.60;99.90;;;;;;4973859;28;20030;-65
2022/05/21 05:40:41;;;;;;;0.10;0.10;;;14.70;99.90;;;;;;4973405;28;20034;-65
2022/05/21 05:43:07;;;;;;;0.30;0.25;;;14.70;99.90;;;;;;4974086;28;20046;-65
2022/05/21 05:45:33;;;;;;;0.47;0.32;;;14.80;99.90;;;;;;4974858;28;20562;-65
2022/05/21 05:47:59;;;;;;;0.08;0.08;;;14.90;99.90;;;;;;4974891;28;20027;-65
2022/05/21 05:50:25;;;;;;;0.00;0.00;;;15.00;99.90;;;;;;4973428;28;20058;-65
2022/05/21 05:52:51;;;;;;;0.00;0.00;;;15.00;99.90;;;;;;4973628;28;20038;-65
2022/05/21 05:55:17;;;;;;;2.78;1.25;;;15.10;99.90;;;;;;4973308;28;20040;-66
2022/05/21 05:57:43;;;;;;;0.00;0.00;;;15.10;99.90;;;;;;4974703;28;20046;-66
2022/05/21 06:00:09;;;;;;;0.20;0.20;;;15.10;99.90;;;;;;4973433;28;20039;-65
2022/05/21 06:05:24;;;;;;;0.00;0.00;;;15.30;99.90;;;;;;4936247;29;20415;-66
2022/05/21 06:08:00;;;;;;;0.00;0.00;;;15.20;99.90;;;;;;4935180;29;20129;-66
2022/05/21 06:10:35;;;;;;;0.00;0.00;;;15.20;99.90;;;;;;4934514;29;20040;-64
2022/05/21 06:13:01;;;;;;;0.00;0.00;;;15.30;99.90;;;;;;4935015;29;20122;-65
2022/05/21 06:15:27;;;;;;;0.00;0.00;;;15.30;99.90;;;;;;4934682;29;20090;-65
2022/05/21 06:17:54;;;;;;;0.00;0.00;;;15.30;99.90;;;;;;4936021;29;20028;-64
2022/05/21 06:20:25;;;;;;;0.28;0.28;;;15.20;99.90;;;;;;4934296;29;20027;-66
2022/05/21 06:22:51;;;;;;;0.00;0.00;;;15.40;99.90;;;;;;4935997;29;20042;-65
2022/05/21 06:25:21;;;;;;;0.00;0.00;;;15.50;99.90;;;;;;4934696;29;20114;-65
2022/05/21 06:27:50;;;;;;;0.00;0.00;;;15.50;99.90;;;;;;4935725;29;20404;-66
2022/05/21 06:30:20;;;;;;;0.03;0.03;;;15.60;99.90;;;;;;4934104;29;20485;-65
2022/05/21 06:32:46;;;;;;;0.38;0.38;;;15.70;99.90;;;;;;4934724;29;20122;-65
2022/05/21 06:35:14;;;;;;;0.00;0.00;;;15.80;99.90;;;;;;4934293;29;20056;-66
2022/05/21 06:37:40;;;;;;;0.00;0.00;;;15.80;99.90;;;;;;4934379;29;20518;-66
2022/05/21 06:40:08;;;;;;;0.00;0.00;;;15.70;99.90;;;;;;4934727;29;20134;-66
2022/05/21 06:42:33;;;;;;;6.30;0.73;;;15.60;99.90;;;;;;4934271;29;20086;-65
2022/05/21 06:44:59;;;;;;;0.00;0.00;;;15.60;99.90;;;;;;4934017;29;20035;-66
2022/05/21 06:47:25;;;;;;;0.10;0.10;;;15.70;99.90;;;;;;4935438;29;20039;-65
2022/05/21 06:49:56;;;;;;;0.22;0.22;;;15.80;99.90;;;;;;4934034;29;20365;-66
2022/05/21 06:52:26;;;;;;;0.35;0.30;;;15.80;99.90;;;;;;4935388;29;20074;-66
2022/05/21 06:54:53;;;;;;;0.00;0.00;;;16.00;99.90;;;;;;4933906;29;20040;-66
2022/05/21 06:57:20;;;;;;;0.00;0.00;;;15.90;99.90;;;;;;4935544;29;20118;-66
2022/05/21 06:59:47;;;;;;;0.35;0.35;;;16.10;99.90;;;;;;4935073;29;20024;-66
2022/05/21 07:02:13;;;;;;;1.75;1.65;;;16.10;99.90;;;;;;4934091;29;20575;-65
2022/05/21 07:07:35;;;;;;;0.00;0.00;;;16.20;99.90;;;;;;4934880;29;20054;-66
2022/05/21 07:10:10;;;;;;;1.85;0.98;;;16.20;99.90;;;;;;4933586;29;20042;-65
2022/05/21 07:12:36;;;;;;;0.00;0.00;;;16.20;99.90;;;;;;4935107;29;20123;-66
2022/05/21 07:15:05;;;;;;;0.00;0.00;;;16.20;99.90;;;;;;4933454;29;20054;-66
2022/05/21 07:17:31;;;;;;;1.13;0.60;;;16.40;99.90;;;;;;4933763;29;20035;-66
2022/05/21 07:19:57;;;;;;;0.22;0.22;;;16.20;99.90;;;;;;4933130;29;20027;-66
2022/05/21 07:22:23;;;;;;;0.00;0.00;;;16.10;99.90;;;;;;4935267;29;20027;-65
2022/05/21 07:24:49;;;;;;;0.00;0.00;;;16.20;99.90;;;;;;4933912;29;20106;-65
2022/05/21 07:27:16;;;;;;;0.03;0.03;;;16.30;99.90;;;;;;4933586;29;20043;-66
2022/05/21 07:29:43;;;;;;;0.00;0.00;;;16.40;99.90;;;;;;4933314;29;20027;-65
2022/05/21 07:32:22;;;;;;;0.00;0.00;;;16.40;99.90;;;;;;4934690;29;20035;-65
2022/05/21 07:34:55;;;;;;;0.00;0.00;;;16.40;99.90;;;;;;4933365;29;20810;-66
2022/05/21 07:37:20;;;;;;;0.00;0.00;;;16.40;99.90;;;;;;4933167;29;20040;-66
2022/05/21 07:39:46;;;;;;;0.00;0.00;;;16.20;99.90;;;;;;4934441;29;20031;-65
2022/05/21 07:42:12;;;;;;;0.52;0.52;;;16.10;99.90;;;;;;4934657;29;20034;-66
2022/05/21 07:44:37;;;;;;;0.28;0.20;;;16.10;99.90;;;;;;4933203;29;20492;-66
2022/05/21 07:47:03;;;;;;;0.13;0.13;;;16.20;99.90;;;;;;4934220;29;20039;-66
2022/05/21 07:49:29;;;;;;;1.00;0.82;;;16.40;99.90;;;;;;4934213;29;20028;-66
2022/05/21 07:51:57;;;;;;;0.00;0.00;;;16.50;99.90;;;;;;4932084;29;20059;-65
2022/05/21 07:54:23;;;;;;;0.95;0.70;;;16.60;99.90;;;;;;4934250;28;20063;-66
2022/05/21 07:56:49;;;;;;;1.52;0.30;;;16.70;99.90;;;;;;4932868;29;20031;-65
2022/05/21 07:59:15;;;;;;;0.00;0.00;;;16.80;99.90;;;;;;4934200;29;20028;-66
2022/05/21 08:01:40;;;;;;;0.20;0.20;;;16.70;99.90;;;;;;4934135;29;20024;-65
2022/05/21 08:04:06;;;;;;;0.40;0.40;;;16.90;99.90;;;;;;4934367;29;20507;-65
2022/05/21 08:06:32;;;;;;;6.28;1.30;;;16.80;99.90;;;;;;4934069;29;20032;-65
2022/05/21 08:08:59;;;;;;;0.00;0.00;;;16.90;99.90;;;;;;4933840;29;20505;-65
2022/05/21 08:11:25;;;;;;;0.00;0.00;;;16.50;99.90;;;;;;4933830;29;20095;-65
2022/05/21 08:13:52;;;;;;;0.05;0.05;;;16.70;99.90;;;;;;4932390;29;20036;-65
2022/05/21 08:16:18;;;;;;;0.68;0.40;;;16.60;99.90;;;;;;4933869;29;20031;-65
2022/05/21 08:18:43;;;;;;;0.00;0.00;;;16.80;99.90;;;;;;4933482;29;20028;-65
2022/05/21 08:21:09;;;;;;;0.17;0.10;;;16.90;99.90;;;;;;4934092;29;20039;-65
2022/05/21 08:29:04;;;;;;;0.00;0.00;;;16.70;99.90;;;;;;4933552;29;20049;-65
2022/05/21 08:31:30;;;;;;;0.00;0.00;;;16.70;99.90;;;;;;4934001;29;20126;-65
2022/05/21 08:33:56;;;;;;;0.20;0.15;;;16.90;99.90;;;;;;4932199;29;20107;-65
2022/05/21 08:36:22;;;;;;;0.00;0.00;;;17.00;99.90;;;;;;4933501;29;20035;-65
2022/05/21 08:38:48;;;;;;;0.00;0.00;;;17.20;99.70;;;;;;4933085;29;20039;-65
2022/05/21 08:41:27;;;;;;;0.00;0.00;;;17.40;98.70;;;;;;4933460;29;20063;-65
2022/05/21 08:44:01;;;;;;;0.00;0.00;;;17.50;98.60;;;;;;4932082;29;20036;-65
2022/05/21 08:47:13;;;;;;;0.00;0.00;;;17.60;98.60;;;;;;4933795;29;20027;-65
2022/05/21 08:49:58;;;;;;;0.10;0.10;;;17.70;98.20;;;;;;4933412;29;20131;-66
2022/05/21 08:52:44;;;;;;;0.70;0.68;;;17.80;98.20;;;;;;4933376;29;20091;-65
2022/05/21 08:55:17;;;;;;;0.10;0.10;;;17.60;98.10;;;;;;4933615;29;20388;-65
2022/05/21 08:58:46;;;;;;;0.00;0.00;;;17.60;98.10;;;;;;4932093;29;20055;-65
2022/05/21 09:01:19;;;;;;;0.00;0.00;;;17.60;97.80;;;;;;4931967;29;20028;-65
2022/05/21 09:03:45;;;;;;;0.00;0.00;;;17.50;97.50;;;;;;4932041;29;20024;-65
2022/05/21 09:06:17;;;;;;;0.00;0.00;;;17.60;97.20;;;;;;4931789;29;20074;-65
2022/05/21 09:08:55;;;;;;;;;;;17.60;97.60;;;;;;4933688;29;20116;-65
2022/05/21 09:12:05;;;;;;;0.15;0.10;;;17.80;97.40;;;;;;4932139;29;20496;-65
2022/05/21 09:14:42;;;;;;;0.30;0.30;;;18.10;97.40;;;;;;4876873;29;20052;-65
2022/05/21 09:17:17;;;;;;;0.00;0.00;;;18.00;96.70;;;;;;4892776;29;20155;-65
2022/05/21 09:19:53;;;;;;;0.00;0.00;;;18.20;96.80;;;;;;4892588;29;20075;-65
2022/05/21 09:22:22;;;;;;;0.05;0.05;;;18.20;96.80;;;;;;4892610;29;20047;-66
2022/05/21 09:24:54;;;;;;;0.10;0.10;;;18.30;95.80;;;;;;4892390;29;20051;-66
2022/05/21 09:27:42;;;;;;;0.00;0.00;;;18.20;95.70;;;;;;4892637;29;20045;-66
2022/05/21 09:30:29;;;;;;;0.20;0.20;;;18.20;96.00;;;;;;4877082;29;20040;-66
2022/05/21 09:33:01;;;;;;;0.00;0.00;;;18.30;95.10;;;;;;4892650;29;20075;-65
2022/05/21 09:35:51;;;;;;;0.10;0.10;;;18.30;95.40;;;;;;4876945;29;20470;-66
2022/05/21 09:38:31;;;;;;;0.00;0.00;;;18.40;95.10;;;;;;4892527;29;20047;-66
2022/05/21 09:41:23;;;;;;;8.18;0.55;;;18.40;94.90;;;;;;4877164;29;20530;-66
2022/05/21 09:47:21;;;;;;;0.00;0.00;;;18.60;94.30;;;;;;4933070;29;20028;-66
2022/05/21 09:50:09;;;;;;;2.65;1.40;;;18.80;94.50;;;;;;4931308;29;20042;-66
2022/05/21 09:52:36;;;;;;;0.45;0.45;;;19.20;94.00;;;;;;4931567;29;20032;-66
2022/05/21 09:55:05;;;;;;;0.00;0.00;;;19.50;93.40;;;;;;4932395;29;20122;-66
2022/05/21 09:57:35;;;;;;;0.30;0.30;;;19.60;93.30;;;;;;4931454;29;20036;-66
2022/05/21 10:00:00;;;;;;;0.05;0.05;;;19.60;93.50;;;;;;4931825;29;20166;-66
2022/05/21 10:02:43;;;;;;;0.00;0.00;;;19.70;93.30;;;;;;4932677;29;20122;-65
2022/05/21 10:05:14;;;;;;;0.32;0.32;;;19.80;93.20;;;;;;4931619;29;20616;-66
2022/05/21 10:10:58;;;;;;;0.20;0.20;;;19.40;93.60;;;;;;4931391;29;20128;-66
2022/05/21 10:13:42;;;;;;;0.08;0.05;;;19.30;93.30;;;;;;4932963;29;20106;-66
2022/05/21 10:16:40;;;;;;;0.00;0.00;;;19.50;93.80;;;;;;4934992;29;20046;-66
2022/05/21 10:19:33;;;;;;;0.00;0.00;;;19.70;92.00;;;;;;4934984;29;20110;-66
2022/05/21 10:22:14;;;;;;;0.00;0.00;;;19.70;92.10;;;;;;4934845;29;20127;-66
2022/05/21 10:25:11;;;;;;;6.78;2.42;;;19.80;92.30;;;;;;4934742;29;20062;-66
2022/05/21 10:28:05;;;;;;;0.00;0.00;;;20.10;91.40;;;;;;4935292;29;20031;-66
2022/05/21 10:31:22;;;;;;;0.45;0.45;;;20.30;90.60;;;;;;4935900;29;20127;-66
2022/05/21 10:34:32;;;;;;;0.25;0.20;;;20.30;90.70;;;;;;4935763;29;20051;-66
2022/05/21 10:37:07;;;;;;;0.00;0.00;;;21.10;90.10;;;;;;4935832;29;20070;-66
2022/05/21 10:40:25;;;;;;;0.00;0.00;;;21.00;88.70;;;;;;4934309;29;20043;-66
2022/05/21 10:43:16;;;;;;;2.17;0.77;;;21.40;87.50;;;;;;4935465;29;20515;-65
2022/05/21 10:46:05;;;;;;;0.00;0.00;;;21.00;85.50;;;;;;4916841;29;20118;-66
2022/05/21 10:49:08;;;;;;;0.00;0.00;;;21.20;86.90;;;;;;4934465;29;20028;-66
2022/05/21 10:51:41;;;;;;;0.00;0.00;;;20.80;88.30;;;;;;4934788;29;20063;-66
2022/05/21 10:54:42;;;;;;;0.00;0.00;;;21.00;88.50;;;;;;4934240;29;20102;-66
2022/05/21 10:57:25;;;;;;;0.00;0.00;;;21.20;87.20;;;;;;4934152;29;20032;-66
2022/05/21 11:00:31;;;;;;;0.40;0.35;;;21.10;87.00;;;;;;4935123;29;20038;-65
2022/05/21 11:03:25;;;;;;;0.00;0.00;;;21.30;86.30;;;;;;4902361;29;20123;-66
2022/05/21 11:06:24;;;;;;;0.00;0.00;;;21.70;85.00;;;;;;4934076;29;20551;-66
2022/05/21 11:09:02;;;;;;;0.45;0.45;;;21.80;84.50;;;;;;4935345;29;20039;-66
2022/05/21 11:12:11;;;;;;;0.00;0.00;;;21.80;84.90;;;;;;4934305;29;20110;-65
2022/05/21 11:14:56;;;;;;;0.00;0.00;;;21.70;83.70;;;;;;4935086;29;20040;-65
2022/05/21 11:17:55;;;;;;;0.00;0.00;;;21.40;83.70;;;;;;4934045;29;20038;-66
2022/05/21 11:20:38;;;;;;;0.00;0.00;;;21.40;84.00;;;;;;4934699;29;20068;-66
2022/05/21 11:23:24;;;;;;;0.00;0.00;;;21.20;81.50;;;;;;4933804;29;20031;-65
2022/05/21 11:26:01;;;;;;;0.35;0.35;;;21.20;81.90;;;;;;4934485;29;20486;-66
2022/05/21 11:28:43;;;;;;;0.13;0.13;;;21.60;81.40;;;;;;4933808;29;20063;-66
2022/05/21 11:37:23;;;;;;;0.00;0.00;;;21.80;82.00;;;;;;4933967;29;20083;-66
2022/05/21 11:39:56;;;;;;;0.00;0.00;;;22.00;81.20;;;;;;4933154;29;20056;-66
2022/05/21 11:42:36;;;;;;;0.00;0.00;;;21.70;80.70;;;;;;4934219;29;20027;-66
2022/05/21 11:45:23;;;;;;;0.17;0.10;;;21.90;81.10;;;;;;4933377;29;20039;-65
2022/05/21 11:47:54;;;;;;;0.90;0.63;;;21.70;80.20;;;;;;4917745;29;20032;-66
2022/05/21 11:50:30;;;;;;;0.00;0.00;;;21.90;80.30;;;;;;4932823;29;20061;-65
2022/05/21 11:53:08;;;;;;;0.10;0.10;;;22.00;79.90;;;;;;4934349;29;20035;-65
2022/05/21 11:56:10;;;;;;;0.00;0.00;;;22.00;79.60;;;;;;4933209;29;20083;-66
2022/05/21 11:58:58;;;;;;;0.10;0.10;;;21.90;80.60;;;;;;4893632;29;20497;-66
2022/05/21 12:01:41;;;;;;;0.00;0.00;;;22.60;79.10;;;;;;4932205;29;20091;-66
2022/05/21 12:04:23;;;;;;;0.20;0.20;;;23.00;79.00;;;;;;4934060;29;20514;-66
2022/05/21 12:06:49;;;;;;;0.00;0.00;;;23.10;79.10;;;;;;4932869;29;20399;-66
2022/05/21 12:09:29;;;;;;;0.00;0.00;;;22.80;76.10;;;;;;4932756;29;20031;-66
2022/05/21 12:12:23;;;;;;;0.37;0.37;;;22.70;77.80;;;;;;4933106;29;20043;-66
2022/05/21 12:15:16;;;;;;;0.00;0.00;;;23.10;77.00;;;;;;4933852;29;20303;-66
2022/05/21 12:17:52;;;;;;;0.00;0.00;;;23.40;75.70;;;;;;4932913;29;20034;-65
2022/05/21 12:20:47;;;;;;;0.03;0.03;;;23.30;74.50;;;;;;4933550;29;20031;-65
2022/05/21 12:23:35;;;;;;;0.00;0.00;;;23.30;74.90;;;;;;4933038;29;20118;-66
2022/05/21 12:26:13;;;;;;;0.00;0.00;;;23.80;74.60;;;;;;4933621;29;20035;-65
2022/05/21 12:29:01;;;;;;;0.05;0.05;;;24.20;74.00;;;;;;4933347;29;20034;-65
2022/05/21 12:31:32;;;;;;;0.00;0.00;;;23.80;73.50;;;;;;4932671;29;20055;-65
2022/05/21 12:34:22;;;;;;;0.20;0.10;;;23.40;74.00;;;;;;4933398;29;20051;-65
2022/05/21 12:37:14;;;;;;;0.75;0.65;;;23.30;75.00;;;;;;4933281;29;20040;-65
2022/05/21 12:40:01;;;;;;;0.00;0.00;;;23.60;74.60;;;;;;4933327;29;20527;-65
2022/05/21 12:42:47;;;;;;;0.00;0.00;;;24.20;73.80;;;;;;4933571;29;20027;-65
2022/05/21 12:45:32;;;;;;;5.93;1.08;;;24.30;73.80;;;;;;4932102;29;20119;-65
2022/05/21 12:48:16;;;;;;;0.00;0.00;;;24.90;71.80;;;;;;4932260;29;20046;-66
2022/05/21 12:50:50;;;;;;;0.00;0.00;;;24.70;72.00;;;;;;4933177;29;20035;-65
2022/05/21 12:53:49;;;;;;;0.00;0.00;;;24.90;70.90;;;;;;4932305;29;20023;-66
2022/05/21 12:56:34;;;;;;;0.70;0.63;;;25.30;70.50;;;;;;4931853;29;20036;-65
2022/05/21 12:59:30;;;;;;;0.00;0.00;;;25.20;69.70;;;;;;4932916;29;20141;-65
2022/05/21 13:02:20;;;;;;;0.00;0.00;;;24.40;71.00;;;;;;4932222;29;20086;-65
2022/05/21 13:04:49;;;;;;;0.13;0.13;;;24.60;71.00;;;;;;4933284;29;20032;-65
2022/05/21 13:07:26;;;;;;;0.00;0.00;;;24.00;71.30;;;;;;4932059;29;20031;-66
2022/05/21 13:10:03;;;;;;;0.00;0.00;;;24.40;70.50;;;;;;4933140;29;20070;-65
2022/05/21 13:12:47;;;;;;;0.00;0.00;;;24.40;70.10;;;;;;4932118;29;20048;-65
2022/05/21 13:15:27;;;;;;;0.00;0.00;;;24.80;71.80;;;;;;4931779;29;20051;-66
2022/05/21 13:18:11;;;;;;;0.20;0.20;;;25.30;68.50;;;;;;4931862;29;20118;-65
2022/05/21 13:20:46;;;;;;;0.00;0.00;;;25.10;68.70;;;;;;4932966;29;20040;-65
2022/05/21 13:24:05;;;;;;;0.10;0.10;;;24.70;69.90;;;;;;4932043;29;20043;-66
2022/05/21 13:26:35;;;;;;;0.03;0.00;;;25.10;69.30;;;;;;4933076;29;20028;-65
2022/05/21 13:29:26;;;;;;;0.10;0.03;;;25.70;67.90;;;;;;4932629;29;20043;-66
2022/05/21 13:31:54;;;;;;;0.00;0.00;;;25.60;66.00;;;;;;4932155;29;20799;-65
2022/05/21 13:34:34;;;;;;;0.00;0.00;;;24.80;67.20;;;;;;4931559;29;20111;-65
2022/05/21 13:37:03;;;;;;;0.00;0.00;;;24.50;66.70;;;;;;4932883;29;20032;-65
2022/05/21 13:39:34;;;;;;;1.13;0.98;;;24.70;67.30;;;;;;4932327;29;20496;-65
2022/05/21 13:42:16;;;;;;;0.10;0.10;;;24.30;68.30;;;;;;4931738;29;20063;-65
2022/05/21 13:44:47;;;;;;;0.32;0.30;;;23.80;69.20;;;;;;4931382;29;20515;-65
2022/05/21 13:47:13;;;;;;;;;;;23.80;69.40;;;;;;4933344;29;20583;-65
2022/05/21 13:49:42;;;;;;;0.10;0.10;;;23.10;69.60;;;;;;4934835;29;19989;-65